Weather at Wagin Airport

Public forecast

Using degrees Celsius for public forecast. Weather courtesy of forecast.io.

Closest aviation weather report (METAR) to Wagin Airport

Closest report is Albany Airport, 99.1 nm (183.6 km) SSE. Retrieved 2020/10/30 23:00 UTC (52 minutes ago):

YABA 302300Z AUTO 35011KT 9999 // NCD 24/06 Q1004

Closest aviation forecast (TAF) to Wagin Airport

Forecast is more than 12 hours old.

Closest forecast is Perth Jandakot Airport, 105.5 nm (195.5 km) NW. Retrieved 2020/10/29 12:00 UTC (1 day ago):

TAF YPJT 291117Z 2912/3006 10013KT CAVOK FM291700 09015G25KT CAVOK FM300000 07013KT CAVOK